createdAt,value
2019-05-07T00:03:03.199Z,40.02
2019-05-07T00:08:06.710Z,40.51
2019-05-07T00:13:12.731Z,40.51
2019-05-07T00:18:15.973Z,40.35
2019-05-07T00:23:19.734Z,40.65
2019-05-07T00:28:23.501Z,40.65
2019-05-07T00:33:27.283Z,40.31
2019-05-07T00:38:33.984Z,40.31
2019-05-07T00:43:40.091Z,40.11
2019-05-07T00:48:43.880Z,40.11
2019-05-07T00:53:47.684Z,40.32
2019-05-07T00:58:52.756Z,40.97
2019-05-07T01:03:57.433Z,40.97
2019-05-07T01:09:03.200Z,40.76
2019-05-07T01:14:06.719Z,40.76
2019-05-07T01:19:12.531Z,40.65
2019-05-07T01:24:16.012Z,40.65
2019-05-07T01:29:19.811Z,41.30
2019-05-07T01:34:29.658Z,41.45
2019-05-07T01:39:33.444Z,41.17
2019-05-07T01:44:37.216Z,41.17
2019-05-07T01:49:42.216Z,42.61
2019-05-07T01:54:47.512Z,42.61
2019-05-07T01:59:52.800Z,42.97
2019-05-07T02:05:26.262Z,42.97
2019-05-07T02:11:04.194Z,43.22
2019-05-07T02:16:08.053Z,43.22
2019-05-07T02:21:12.847Z,42.80
2019-05-07T02:26:16.927Z,42.84
2019-05-07T02:31:23.121Z,43.13
2019-05-07T02:36:26.324Z,43.43
2019-05-07T02:41:33.316Z,42.91
2019-05-07T02:46:57.583Z,42.91
2019-05-07T02:52:07.465Z,43.46
2019-05-07T02:57:16.642Z,43.98
2019-05-07T03:02:16.725Z,43.45
2019-05-07T03:07:23.891Z,43.33
2019-05-07T03:12:27.385Z,43.65
2019-05-07T03:17:33.288Z,43.50
2019-05-07T03:22:36.730Z,44.05
2019-05-07T03:27:43.170Z,44.05
2019-05-07T03:32:56.673Z,43.98
2019-05-07T03:38:03.502Z,44.32
2019-05-07T03:43:06.610Z,44.32
2019-05-07T03:48:13.736Z,44.17
2019-05-07T03:53:17.722Z,43.78
2019-05-07T03:58:23.615Z,43.89
2019-05-07T04:03:27.067Z,43.64
2019-05-07T04:08:33.437Z,43.61
2019-05-07T04:13:36.445Z,43.78
2019-05-07T04:18:43.358Z,43.12
2019-05-07T04:23:45.839Z,43.60
2019-05-07T04:29:05.556Z,43.61
2019-05-07T04:34:17.895Z,43.58
2019-05-07T04:39:23.230Z,43.54
2019-05-07T04:44:27.280Z,43.25
2019-05-07T04:49:33.159Z,43.52
2019-05-07T04:54:36.627Z,43.05
2019-05-07T04:59:42.902Z,43.45
2019-05-07T05:04:45.931Z,43.45
2019-05-07T05:09:49.901Z,43.12
2019-05-07T05:14:53.693Z,43.02
2019-05-07T05:20:00.361Z,42.89
2019-05-07T05:25:22.761Z,43.12
2019-05-07T05:30:34.022Z,43.12
2019-05-07T05:35:37.898Z,42.99
2019-05-07T05:40:42.644Z,42.73
2019-05-07T05:45:47.564Z,42.65
2019-05-07T05:51:02.668Z,42.65
2019-05-07T05:56:12.806Z,43.05
2019-05-07T06:01:35.593Z,43.15
2019-05-07T06:06:49.079Z,42.60
2019-05-07T06:12:06.917Z,42.76
2019-05-07T06:17:16.982Z,43.06
2019-05-07T06:22:42.547Z,42.61
2019-05-07T06:27:46.641Z,42.51
2019-05-07T06:32:52.258Z,42.51
2019-05-07T06:37:56.642Z,42.83
2019-05-07T06:43:28.540Z,42.83
2019-05-07T06:48:42.046Z,42.35
2019-05-07T06:53:37.846Z,42.35
2019-05-07T06:58:49.780Z,41.85
2019-05-07T07:04:04.093Z,38.80
2019-05-07T07:09:39.162Z,38.80
2019-05-07T07:14:43.655Z,42.19
2019-05-07T07:19:47.445Z,42.19
2019-05-07T07:24:53.120Z,43.95
2019-05-07T07:30:18.735Z,43.17
2019-05-07T07:35:22.645Z,39.71
2019-05-07T07:40:42.234Z,38.20
2019-05-07T07:45:46.235Z,37.69
2019-05-07T07:50:52.355Z,37.26
2019-05-07T07:56:13.360Z,36.94
2019-05-07T08:01:23.615Z,36.94
2019-05-07T08:06:29.395Z,37.28
2019-05-07T08:11:34.471Z,37.49
2019-05-07T08:16:38.290Z,37.73
2019-05-07T08:21:42.246Z,37.53
2019-05-07T08:26:46.035Z,37.57
2019-05-07T08:32:22.303Z,37.64
2019-05-07T08:37:26.285Z,37.57
2019-05-07T08:42:32.059Z,37.89
2019-05-07T08:47:44.993Z,37.89
2019-05-07T08:52:48.769Z,38.00
2019-05-07T08:57:52.565Z,38.05
2019-05-07T09:02:56.381Z,38.39
2019-05-07T09:08:02.094Z,38.39
2019-05-07T09:13:05.693Z,38.39
2019-05-07T09:18:09.473Z,38.45
2019-05-07T09:23:13.239Z,38.17
2019-05-07T09:28:17.212Z,38.60
2019-05-07T09:33:32.044Z,38.88
2019-05-07T09:38:35.970Z,38.88
2019-05-07T09:43:39.758Z,39.08
2019-05-07T09:48:43.535Z,39.39
2019-05-07T09:53:47.326Z,39.30
2019-05-07T09:58:53.071Z,39.63
2019-05-07T10:09:12.190Z,39.53
2019-05-07T10:14:16.052Z,39.86
2019-05-07T10:19:22.099Z,39.86
2019-05-07T10:24:25.379Z,40.06
2019-05-07T10:29:29.153Z,39.98
2019-05-07T10:34:32.933Z,39.82
2019-05-07T10:39:36.739Z,39.77
2019-05-07T10:44:46.640Z,40.19
2019-05-07T10:50:11.374Z,40.19
2019-05-07T10:55:14.913Z,39.81
2019-05-07T11:00:22.573Z,39.50
2019-05-07T11:05:26.492Z,39.31
2019-05-07T11:10:32.413Z,39.76
2019-05-07T11:15:36.248Z,39.63
2019-05-07T11:20:48.915Z,39.63
2019-05-07T11:25:45.631Z,39.61
2019-05-07T11:30:49.628Z,39.58
2019-05-07T11:35:53.479Z,39.29
2019-05-07T11:40:57.255Z,39.35
2019-05-07T11:46:14.638Z,33.31
2019-05-07T11:51:24.816Z,33.50
2019-05-07T11:56:28.596Z,33.50
2019-05-07T12:01:43.959Z,33.42
2019-05-07T12:06:38.499Z,35.38
2019-05-07T12:11:42.710Z,34.47
2019-05-07T12:16:46.564Z,36.96
2019-05-07T12:21:52.506Z,38.49
2019-05-07T12:26:55.849Z,39.45
2019-05-07T12:32:10.530Z,39.73
2019-05-07T12:37:14.320Z,39.73
2019-05-07T12:42:18.094Z,39.66
2019-05-07T12:47:22.505Z,40.28
2019-05-07T12:52:48.761Z,39.69
2019-05-07T12:57:52.547Z,39.26
2019-05-07T13:03:27.458Z,39.80
2019-05-07T13:08:32.948Z,39.65
2019-05-07T13:13:36.891Z,39.87
2019-05-07T13:18:42.294Z,39.87
2019-05-07T13:23:46.255Z,39.68
2019-05-07T13:28:50.094Z,39.68
2019-05-07T13:33:53.875Z,39.94
2019-05-07T13:39:08.197Z,39.94
2019-05-07T13:44:24.257Z,40.42
2019-05-07T13:49:28.150Z,40.45
2019-05-07T13:54:32.466Z,40.45
2019-05-07T13:59:36.393Z,40.48
2019-05-07T14:04:41.954Z,40.57
2019-05-07T14:09:45.874Z,40.43
2019-05-07T14:14:49.657Z,40.36
2019-05-07T14:19:53.430Z,40.43
2019-05-07T14:24:57.222Z,40.43
2019-05-07T14:30:02.719Z,40.79
2019-05-07T14:35:24.699Z,40.79
2019-05-07T14:40:28.537Z,41.07
2019-05-07T14:45:32.763Z,40.45
2019-05-07T14:50:36.650Z,41.00
2019-05-07T14:55:41.860Z,40.51
2019-05-07T15:00:45.892Z,40.49
2019-05-07T15:05:49.758Z,40.41
2019-05-07T15:10:53.563Z,40.53
2019-05-07T15:15:57.331Z,40.90
2019-05-07T15:21:01.871Z,40.21
2019-05-07T15:26:05.988Z,40.21
2019-05-07T15:31:42.370Z,40.61
2019-05-07T15:36:46.096Z,40.56
2019-05-07T15:41:51.798Z,40.51
2019-05-07T15:46:57.196Z,40.82
2019-05-07T15:52:03.493Z,40.82
2019-05-07T15:57:09.347Z,40.69
2019-05-07T16:02:24.035Z,40.94
2019-05-07T16:07:27.835Z,40.94
2019-05-07T16:12:31.994Z,40.14
2019-05-07T16:17:49.540Z,39.29
2019-05-07T16:22:56.530Z,39.29
2019-05-07T16:28:04.444Z,38.70
2019-05-07T16:33:06.094Z,38.25
2019-05-07T16:38:09.884Z,38.25
2019-05-07T16:43:14.126Z,38.80
2019-05-07T16:48:17.948Z,38.33
2019-05-07T16:53:29.655Z,38.71
2019-05-07T16:58:46.221Z,38.23
2019-05-07T17:03:54.586Z,38.23
2019-05-07T17:09:17.397Z,38.74
2019-05-07T17:14:21.189Z,38.47
2019-05-07T17:19:24.987Z,38.88
2019-05-07T17:24:28.757Z,38.88
2019-05-07T17:29:32.524Z,38.15
2019-05-07T17:34:36.458Z,38.15
2019-05-07T17:39:42.538Z,38.61
2019-05-07T17:44:45.929Z,38.29
2019-05-07T17:49:52.712Z,38.52
2019-05-07T17:54:56.389Z,38.81
2019-05-07T18:00:02.209Z,38.81
2019-05-07T18:05:06.438Z,38.61
2019-05-07T18:10:12.447Z,38.67
2019-05-07T18:15:16.137Z,38.67
2019-05-07T18:20:22.096Z,38.58
2019-05-07T18:25:25.455Z,38.46
2019-05-07T18:30:29.379Z,38.72
2019-05-07T18:35:33.141Z,38.37
2019-05-07T18:40:36.911Z,38.68
2019-05-07T18:45:40.677Z,38.68
2019-05-07T18:50:44.467Z,38.70
2019-05-07T18:55:48.249Z,38.98
2019-05-07T19:00:55.252Z,38.61
2019-05-07T19:05:59.027Z,38.61
2019-05-07T19:11:05.693Z,38.70
2019-05-07T19:16:08.706Z,38.77
2019-05-07T19:21:12.491Z,38.66
2019-05-07T19:26:16.263Z,39.13
2019-05-07T19:31:22.005Z,38.84
2019-05-07T19:36:25.546Z,39.15
2019-05-07T19:41:29.373Z,39.47
2019-05-07T19:46:33.406Z,39.92
2019-05-07T19:51:39.256Z,39.89
2019-05-07T19:56:43.048Z,39.89
2019-05-07T20:01:51.991Z,39.55
2019-05-07T20:06:55.952Z,39.30
2019-05-07T20:11:59.862Z,40.14
2019-05-07T20:17:03.804Z,39.76
2019-05-07T20:22:07.671Z,40.06
2019-05-07T20:27:12.514Z,39.70
2019-05-07T20:32:16.459Z,39.86
2019-05-07T20:37:21.994Z,40.08
2019-05-07T20:42:26.267Z,40.08
2019-05-07T20:47:32.421Z,40.22
2019-05-07T20:52:35.694Z,40.21
2019-05-07T20:57:42.760Z,40.52
2019-05-07T21:02:48.403Z,40.68
2019-05-07T21:07:52.470Z,40.49
2019-05-07T21:12:56.316Z,40.49
2019-05-07T21:18:00.127Z,40.66
2019-05-07T21:23:03.993Z,40.66
2019-05-07T21:28:07.762Z,40.74
2019-05-07T21:33:12.035Z,40.48
2019-05-07T21:38:15.985Z,40.50
2019-05-07T21:43:21.883Z,41.20
2019-05-07T21:48:25.265Z,41.20
2019-05-07T21:53:34.323Z,41.32
2019-05-07T21:58:45.241Z,41.65
2019-05-07T22:03:52.453Z,41.65
2019-05-07T22:08:56.282Z,41.47
2019-05-07T22:14:02.068Z,41.60
2019-05-07T22:19:05.822Z,41.67
2019-05-07T22:24:09.612Z,41.75
2019-05-07T22:29:13.514Z,41.62
2019-05-07T22:34:39.610Z,41.52
2019-05-07T22:39:43.472Z,41.51
2019-05-07T22:44:47.239Z,42.43
2019-05-07T22:49:53.503Z,42.26
2019-05-07T22:54:56.595Z,42.26
2019-05-07T23:00:04.234Z,42.45
2019-05-07T23:05:06.199Z,42.61
2019-05-07T23:10:11.907Z,42.70
2019-05-07T23:15:15.772Z,42.70
2019-05-07T23:20:19.518Z,43.17
2019-05-07T23:25:24.591Z,43.07
2019-05-07T23:30:28.619Z,43.63
2019-05-07T23:35:32.930Z,43.63
2019-05-07T23:40:49.932Z,43.39
2019-05-07T23:45:53.779Z,43.54
2019-05-07T23:50:57.594Z,43.61
2019-05-07T23:56:02.848Z,43.61
